Time;durP1;ratioP1;P1;durP2;ratioP2;P2;SDS_P1;SDS_P2;PMS_P1;PMS_P2;Temp;Humidity;BMP_temperature;BMP_pressure;BME280_temperature;BME280_humidity;BME280_pressure;Samples;Min_cycle;Max_cycle;Signal;HPM_P1;HPM_P2
2023/05/27 00:00:49;;;;;;;;;;;;;;;;;;5100833;28;19916;-60
2023/05/27 00:03:14;;;;;;;;;;;;;;;;;;5103000;28;20285;-60
2023/05/27 00:05:40;;;;;;;;;;;;;;;;;;5105217;28;19916;-60
2023/05/27 00:08:05;;;;;;;;;;;;;;;;;;5100730;28;20273;-62
2023/05/27 00:10:30;;;;;;;;;;;;;;;;;;5101547;28;19955;-60
2023/05/27 00:12:56;;;;;;;;;;;;;;;;;;5100177;28;20428;-60
2023/05/27 00:15:21;;;;;;;;;;;;;;;;;;5067049;28;19915;-60
2023/05/27 00:17:47;;;;;;;;;;;;;;;;;;5085357;28;19920;-60
2023/05/27 00:20:12;;;;;;;;;;;;;;;;;;5099563;28;19916;-62
2023/05/27 00:22:38;;;;;;;;;;;;;;;;;;5098942;28;19924;-60
2023/05/27 00:25:03;;;;;;;;;;;;;;;;;;5084316;28;19915;-60
2023/05/27 00:27:28;;;;;;;;;;;;;;;;;;5103499;28;20287;-60
2023/05/27 00:29:54;;;;;;;;;;;;;;;;;;5085006;28;19923;-61
2023/05/27 00:32:19;;;;;;;;;;;;;;;;;;5107606;28;19916;-61
2023/05/27 00:34:44;;;;;;;;;;;;;;;;;;5104182;28;19916;-60
2023/05/27 00:37:09;;;;;;;;;;;;;;;;;;5106832;27;19931;-61
2023/05/27 00:39:35;;;;;;;;;;;;;;;;;;5088856;28;19982;-61
2023/05/27 00:42:01;;;;;;;;;;;;;;;;;;5085691;28;19916;-60
2023/05/27 00:44:26;;;;;;;;;;;;;;;;;;5087701;28;20139;-60
2023/05/27 00:46:52;;;;;;;;;;;;;;;;;;5081958;28;19916;-59
2023/05/27 00:49:17;;;;;;;;;;;;;;;;;;5083957;28;20293;-60
2023/05/27 00:51:43;;;;;;;;;;;;;;;;;;5083660;28;20023;-60
2023/05/27 00:54:08;;;;;;;;;;;;;;;;;;5081062;28;19973;-60
2023/05/27 00:56:33;;;;;;;;;;;;;;;;;;5083819;28;19942;-60
2023/05/27 00:58:59;;;;;;;;;;;;;;;;;;5080533;28;20061;-61
2023/05/27 01:01:28;;;;;;;;;;;;;;;;;;5081734;28;19969;-60
2023/05/27 01:03:53;;;;;;;;;;;;;;;;;;5082813;28;19955;-60
2023/05/27 01:06:19;;;;;;;;;;;;;;;;;;5081675;28;19966;-60
2023/05/27 01:08:44;;;;;;;;;;;;;;;;;;5084947;28;19935;-60
2023/05/27 01:11:10;;;;;;;;;;;;;;;;;;5081009;28;19923;-60
2023/05/27 01:13:35;;;;;;;;;;;;;;;;;;5088717;28;20028;-60
2023/05/27 01:16:00;;;;;;;;;;;;;;;;;;5083900;28;19923;-61
2023/05/27 01:18:29;;;;;;;;;;;;;;;;;;5081722;28;19920;-60
2023/05/27 01:20:55;;;;;;;;;;;;;;;;;;5083661;28;19916;-59
2023/05/27 01:23:20;;;;;;;;;;;;;;;;;;5083033;28;19921;-61
2023/05/27 01:25:45;;;;;;;;;;;;;;;;;;5083773;28;19966;-59
2023/05/27 01:28:11;;;;;;;;;;;;;;;;;;5061890;28;20023;-60
2023/05/27 01:30:36;;;;;;;;;;;;;;;;;;5085104;28;19920;-62
2023/05/27 01:33:01;;;;;;;;;;;;;;;;;;5085861;28;20169;-60
2023/05/27 01:35:29;;;;;;;;;;;;;;;;;;5081002;28;19923;-59
2023/05/27 01:37:54;;;;;;;;;;;;;;;;;;5087692;28;19931;-59
2023/05/27 01:40:20;;;;;;;;;;;;;;;;;;5096817;28;19950;-60
2023/05/27 01:42:46;;;;;;;;;;;;;;;;;;5097299;28;19924;-61
2023/05/27 01:45:11;;;;;;;;;;;;;;;;;;5096622;28;19946;-61
2023/05/27 01:47:38;;;;;;;;;;;;;;;;;;5096439;28;19932;-61
2023/05/27 01:50:04;;;;;;;;;;;;;;;;;;5114570;28;19968;-60
2023/05/27 01:52:30;;;;;;;;;;;;;;;;;;5084714;28;20368;-60
2023/05/27 01:54:56;;;;;;;;;;;;;;;;;;5104885;28;19968;-62
2023/05/27 01:57:22;;;;;;;;;;;;;;;;;;5064749;28;19920;-60
2023/05/27 01:59:48;;;;;;;;;;;;;;;;;;5085007;28;20033;-61
2023/05/27 02:02:13;;;;;;;;;;;;;;;;;;5086629;28;19916;-60
2023/05/27 02:04:40;;;;;;;;;;;;;;;;;;5086580;28;20008;-61
2023/05/27 02:07:05;;;;;;;;;;;;;;;;;;5097875;28;20404;-60
2023/05/27 02:09:30;;;;;;;;;;;;;;;;;;5101798;28;20022;-60
2023/05/27 02:11:56;;;;;;;;;;;;;;;;;;5081286;28;19920;-60
2023/05/27 02:14:21;;;;;;;;;;;;;;;;;;5066037;28;20015;-61
2023/05/27 02:16:49;;;;;;;;;;;;;;;;;;5063042;28;19920;-60
2023/05/27 02:19:35;;;;;;;;;;;;;;;;;;5071718;28;20300;-61
2023/05/27 02:22:00;;;;;;;;;;;;;;;;;;5082710;28;20015;-60
2023/05/27 02:24:25;;;;;;;;;;;;;;;;;;5105400;28;19920;-61
2023/05/27 02:26:51;;;;;;;;;;;;;;;;;;5103367;28;19968;-60
2023/05/27 02:29:16;;;;;;;;;;;;;;;;;;5084069;28;19959;-60
2023/05/27 02:31:41;;;;;;;;;;;;;;;;;;5084811;28;19951;-60
2023/05/27 02:34:07;;;;;;;;;;;;;;;;;;5100652;28;20363;-59
2023/05/27 02:36:33;;;;;;;;;;;;;;;;;;5102981;28;20467;-61
2023/05/27 02:38:58;;;;;;;;;;;;;;;;;;5102010;28;19951;-61
2023/05/27 02:41:24;;;;;;;;;;;;;;;;;;5100440;28;20381;-60
2023/05/27 02:43:49;;;;;;;;;;;;;;;;;;5086515;28;19927;-60
2023/05/27 02:46:14;;;;;;;;;;;;;;;;;;5102082;28;19924;-60
2023/05/27 02:48:40;;;;;;;;;;;;;;;;;;5083651;28;19935;-61
2023/05/27 02:51:05;;;;;;;;;;;;;;;;;;5080875;28;20002;-60
2023/05/27 02:53:31;;;;;;;;;;;;;;;;;;5083953;28;19927;-59
2023/05/27 02:55:56;;;;;;;;;;;;;;;;;;5085362;28;19931;-60
2023/05/27 02:58:21;;;;;;;;;;;;;;;;;;5076907;28;20022;-59
2023/05/27 03:00:47;;;;;;;;;;;;;;;;;;5082716;28;19920;-60
2023/05/27 03:03:14;;;;;;;;;;;;;;;;;;5085682;28;19920;-61
2023/05/27 03:05:40;;;;;;;;;;;;;;;;;;5066182;28;20002;-61
2023/05/27 03:08:06;;;;;;;;;;;;;;;;;;5086596;28;20454;-60
2023/05/27 03:10:31;;;;;;;;;;;;;;;;;;5102314;28;19961;-60
2023/05/27 03:12:56;;;;;;;;;;;;;;;;;;5102697;28;20300;-60
2023/05/27 03:15:23;;;;;;;;;;;;;;;;;;5082260;28;19945;-60
2023/05/27 03:17:48;;;;;;;;;;;;;;;;;;5066364;28;19957;-60
2023/05/27 03:20:13;;;;;;;;;;;;;;;;;;5085759;28;20338;-60
2023/05/27 03:22:39;;;;;;;;;;;;;;;;;;5083045;28;19920;-62
2023/05/27 03:25:05;;;;;;;;;;;;;;;;;;5080146;28;19927;-61
2023/05/27 03:27:30;;;;;;;;;;;;;;;;;;5081561;28;19946;-60
2023/05/27 03:29:56;;;;;;;;;;;;;;;;;;5087433;28;19916;-61
2023/05/27 03:32:21;;;;;;;;;;;;;;;;;;5083489;28;19922;-60
2023/05/27 03:34:48;;;;;;;;;;;;;;;;;;5073251;28;19916;-60
2023/05/27 03:37:14;;;;;;;;;;;;;;;;;;5082213;28;20397;-60
2023/05/27 03:39:59;;;;;;;;;;;;;;;;;;5096440;28;19928;-62
2023/05/27 03:42:25;;;;;;;;;;;;;;;;;;5082982;28;19923;-60
2023/05/27 03:44:50;;;;;;;;;;;;;;;;;;5102495;28;19916;-60
2023/05/27 03:47:20;;;;;;;;;;;;;;;;;;5099865;28;19920;-60
2023/05/27 03:49:45;;;;;;;;;;;;;;;;;;5080104;28;19931;-60
2023/05/27 03:52:11;;;;;;;;;;;;;;;;;;5096971;28;20297;-60
2023/05/27 03:54:36;;;;;;;;;;;;;;;;;;5084515;28;20392;-60
2023/05/27 03:57:02;;;;;;;;;;;;;;;;;;5077851;28;20163;-61
2023/05/27 03:59:27;;;;;;;;;;;;;;;;;;5102581;28;19928;-60
2023/05/27 04:01:53;;;;;;;;;;;;;;;;;;5079527;28;19916;-60
2023/05/27 04:04:18;;;;;;;;;;;;;;;;;;5082851;28;19920;-60
2023/05/27 04:06:43;;;;;;;;;;;;;;;;;;5081119;28;19919;-61
2023/05/27 04:09:09;;;;;;;;;;;;;;;;;;5096845;28;19927;-60
2023/05/27 04:11:34;;;;;;;;;;;;;;;;;;5080646;28;19927;-60
2023/05/27 04:13:59;;;;;;;;;;;;;;;;;;5080925;28;20334;-61
2023/05/27 04:16:25;;;;;;;;;;;;;;;;;;5100147;28;19982;-60
2023/05/27 04:18:51;;;;;;;;;;;;;;;;;;5088568;28;20380;-61
2023/05/27 04:21:16;;;;;;;;;;;;;;;;;;5112061;28;20343;-61
2023/05/27 04:23:41;;;;;;;;;;;;;;;;;;5089690;28;19955;-60
2023/05/27 04:26:07;;;;;;;;;;;;;;;;;;5082811;28;19959;-60
2023/05/27 04:28:38;;;;;;;;;;;;;;;;;;5079809;28;19928;-61
2023/05/27 04:31:04;;;;;;;;;;;;;;;;;;5073430;28;20381;-60
2023/05/27 04:33:37;;;;;;;;;;;;;;;;;;5092649;28;19920;-60
2023/05/27 04:36:03;;;;;;;;;;;;;;;;;;5093733;28;19927;-59
2023/05/27 04:38:34;;;;;;;;;;;;;;;;;;5089939;28;19971;-60
2023/05/27 04:41:03;;;;;;;;;;;;;;;;;;5085000;28;19916;-61
2023/05/27 04:43:42;;;;;;;;;;;;;;;;;;5073428;28;19965;-60
2023/05/27 04:46:07;;;;;;;;;;;;;;;;;;5081101;28;20385;-60
2023/05/27 04:48:35;;;;;;;;;;;;;;;;;;5089978;28;20026;-60
2023/05/27 04:51:00;;;;;;;;;;;;;;;;;;5074835;28;20404;-61
2023/05/27 04:53:25;;;;;;;;;;;;;;;;;;5069960;28;19920;-60
2023/05/27 04:55:51;;;;;;;;;;;;;;;;;;5069668;28;19916;-60
2023/05/27 04:58:16;;;;;;;;;;;;;;;;;;5097888;28;19920;-60
2023/05/27 05:00:52;;;;;;;;;;;;;;;;;;5069774;28;19958;-60
2023/05/27 05:03:22;;;;;;;;;;;;;;;;;;5078355;28;20233;-61
2023/05/27 05:05:47;;;;;;;;;;;;;;;;;;5082327;28;19920;-60
2023/05/27 05:08:12;;;;;;;;;;;;;;;;;;5089662;28;19981;-60
2023/05/27 05:10:38;;;;;;;;;;;;;;;;;;5086275;28;19921;-61
2023/05/27 05:13:04;;;;;;;;;;;;;;;;;;5078240;28;19966;-60
2023/05/27 05:15:31;;;;;;;;;;;;;;;;;;5081795;28;19916;-60
2023/05/27 05:17:56;;;;;;;;;;;;;;;;;;5082305;28;19920;-60
2023/05/27 05:20:21;;;;;;;;;;;;;;;;;;5082120;28;19995;-60
2023/05/27 05:22:47;;;;;;;;;;;;;;;;;;5088628;28;20023;-61
2023/05/27 05:25:12;;;;;;;;;;;;;;;;;;5084058;28;19940;-60
2023/05/27 05:27:46;;;;;;;;;;;;;;;;;;5084333;28;19928;-61
2023/05/27 05:30:12;;;;;;;;;;;;;;;;;;5093253;28;20320;-61
2023/05/27 05:32:37;;;;;;;;;;;;;;;;;;5094270;28;20350;-60
2023/05/27 05:35:03;;;;;;;;;;;;;;;;;;5105885;28;19916;-60
2023/05/27 05:37:28;;;;;;;;;;;;;;;;;;5093510;28;19955;-59
2023/05/27 05:39:55;;;;;;;;;;;;;;;;;;5072438;28;20287;-61
2023/05/27 05:42:21;;;;;;;;;;;;;;;;;;5063271;28;19916;-59
2023/05/27 05:44:47;;;;;;;;;;;;;;;;;;5055251;28;19920;-62
2023/05/27 05:47:12;;;;;;;;;;;;;;;;;;5054075;28;19916;-61
2023/05/27 05:49:38;;;;;;;;;;;;;;;;;;5053464;28;19982;-60
2023/05/27 05:52:04;;;;;;;;;;;;;;;;;;5058832;28;19918;-61
2023/05/27 05:54:29;;;;;;;;;;;;;;;;;;5063486;28;20178;-61
2023/05/27 05:56:56;;;;;;;;;;;;;;;;;;5063209;28;19916;-60
2023/05/27 05:59:21;;;;;;;;;;;;;;;;;;5061824;28;19921;-59
2023/05/27 06:01:47;;;;;;;;;;;;;;;;;;5061911;28;19920;-60
2023/05/27 06:04:12;;;;;;;;;;;;;;;;;;5056389;28;19920;-60
2023/05/27 06:06:41;;;;;;;;;;;;;;;;;;5064292;28;20062;-60
2023/05/27 06:09:26;;;;;;;;;;;;;;;;;;5062857;28;19974;-61
2023/05/27 06:11:54;;;;;;;;;;;;;;;;;;5068359;28;20009;-61
2023/05/27 06:14:22;;;;;;;;;;;;;;;;;;5052607;28;19961;-62
2023/05/27 06:16:47;;;;;;;;;;;;;;;;;;5053427;28;19924;-61
2023/05/27 06:19:13;;;;;;;;;;;;;;;;;;5066501;28;19921;-61
2023/05/27 06:21:39;;;;;;;;;;;;;;;;;;5062413;28;19917;-60
2023/05/27 06:24:31;;;;;;;;;;;;;;;;;;5062289;28;19982;-61
2023/05/27 06:27:13;;;;;;;;;;;;;;;;;;5060026;28;20015;-61
2023/05/27 06:29:39;;;;;;;;;;;;;;;;;;5040833;28;19932;-61
2023/05/27 06:32:05;;;;;;;;;;;;;;;;;;5061544;28;20344;-60
2023/05/27 06:34:30;;;;;;;;;;;;;;;;;;5062787;28;20098;-62
2023/05/27 06:36:55;;;;;;;;;;;;;;;;;;5070966;28;19920;-62
2023/05/27 06:39:22;;;;;;;;;;;;;;;;;;5083785;28;19927;-61
2023/05/27 06:41:48;;;;;;;;;;;;;;;;;;5077948;28;20653;-61
2023/05/27 06:44:32;;;;;;;;;;;;;;;;;;5081610;28;19940;-60
2023/05/27 06:47:11;;;;;;;;;;;;;;;;;;5083920;28;20234;-61
2023/05/27 06:49:37;;;;;;;;;;;;;;;;;;5080227;28;19928;-60
2023/05/27 06:52:06;;;;;;;;;;;;;;;;;;5059226;28;19931;-61
2023/05/27 06:54:38;;;;;;;;;;;;;;;;;;5088213;28;20229;-61
2023/05/27 06:57:26;;;;;;;;;;;;;;;;;;5082794;28;20011;-62
2023/05/27 07:00:00;;;;;;;;;;;;;;;;;;5091594;28;19916;-61
2023/05/27 07:02:25;;;;;;;;;;;;;;;;;;5091261;28;19930;-62
2023/05/27 07:04:53;;;;;;;;;;;;;;;;;;5092844;28;19955;-62
2023/05/27 07:07:19;;;;;;;;;;;;;;;;;;5074285;28;20433;-63
2023/05/27 07:09:44;;;;;;;;;;;;;;;;;;5091311;28;20014;-62
2023/05/27 07:12:10;;;;;;;;;;;;;;;;;;5092664;28;19916;-61
2023/05/27 07:14:50;;;;;;;;;;;;;;;;;;5091363;28;20384;-62
2023/05/27 07:17:16;;;;;;;;;;;;;;;;;;5091027;28;19923;-62
2023/05/27 07:19:42;;;;;;;;;;;;;;;;;;5092469;28;19962;-63
2023/05/27 07:22:13;;;;;;;;;;;;;;;;;;5091131;28;19923;-61
2023/05/27 07:24:38;;;;;;;;;;;;;;;;;;5074636;28;19920;-61
2023/05/27 07:27:04;;;;;;;;;;;;;;;;;;5074326;28;19916;-64
2023/05/27 07:29:31;;;;;;;;;;;;;;;;;;5091086;28;20023;-61
2023/05/27 07:32:19;;;;;;;;;;;;;;;;;;5074016;28;19916;-63
2023/05/27 07:34:44;;;;;;;;;;;;;;;;;;5090319;28;19916;-64
2023/05/27 07:37:09;;;;;;;;;;;;;;;;;;5072802;28;19916;-62
2023/05/27 07:39:38;;;;;;;;;;;;;;;;;;5090892;28;20006;-61
2023/05/27 07:42:03;;;;;;;;;;;;;;;;;;5090907;28;19916;-62
2023/05/27 07:44:30;;;;;;;;;;;;;;;;;;5090712;28;19927;-61
2023/05/27 07:47:00;;;;;;;;;;;;;;;;;;5090794;28;20014;-62
2023/05/27 07:49:25;;;;;;;;;;;;;;;;;;5073806;28;19973;-62
2023/05/27 07:52:06;;;;;;;;;;;;;;;;;;5076337;28;19916;-62
2023/05/27 07:54:31;;;;;;;;;;;;;;;;;;5090551;28;19973;-61
2023/05/27 07:56:57;;;;;;;;;;;;;;;;;;5090817;28;19916;-61
2023/05/27 07:59:23;;;;;;;;;;;;;;;;;;5057882;28;19920;-61
2023/05/27 08:01:48;;;;;;;;;;;;;;;;;;5091381;28;19923;-61
2023/05/27 08:04:14;;;;;;;;;;;;;;;;;;5089645;28;19920;-61
2023/05/27 08:06:52;;;;;;;;;;;;;;;;;;5092149;28;19923;-61
2023/05/27 08:09:40;;;;;;;;;;;;;;;;;;5080546;28;20321;-61
2023/05/27 08:12:24;;;;;;;;;;;;;;;;;;5092025;28;19922;-62
2023/05/27 08:14:58;;;;;;;;;;;;;;;;;;5091731;28;19923;-60
2023/05/27 08:17:37;;;;;;;;;;;;;;;;;;5090398;28;19916;-60
2023/05/27 08:20:18;;;;;;;;;;;;;;;;;;5059192;28;19916;-61
2023/05/27 08:22:45;;;;;;;;;;;;;;;;;;5092004;28;20015;-62
2023/05/27 08:25:17;;;;;;;;;;;;;;;;;;5091610;28;20389;-61
2023/05/27 08:28:08;;;;;;;;;;;;;;;;;;5091385;28;20430;-62
2023/05/27 08:30:46;;;;;;;;;;;;;;;;;;5090294;28;19916;-60
2023/05/27 08:33:18;;;;;;;;;;;;;;;;;;5090269;28;19924;-61
2023/05/27 08:35:43;;;;;;;;;;;;;;;;;;5089465;28;19923;-62
2023/05/27 08:38:09;;;;;;;;;;;;;;;;;;5093127;28;19945;-61
2023/05/27 08:40:38;;;;;;;;;;;;;;;;;;5093364;28;19930;-61
2023/05/27 08:43:03;;;;;;;;;;;;;;;;;;5093725;28;20010;-61
2023/05/27 08:45:30;;;;;;;;;;;;;;;;;;5093514;28;20002;-61
2023/05/27 08:47:55;;;;;;;;;;;;;;;;;;5093490;28;19928;-60
2023/05/27 08:50:27;;;;;;;;;;;;;;;;;;5097185;28;19927;-60
2023/05/27 08:52:53;;;;;;;;;;;;;;;;;;5097431;28;19920;-61
2023/05/27 08:55:18;;;;;;;;;;;;;;;;;;5097398;28;19915;-60
2023/05/27 08:57:43;;;;;;;;;;;;;;;;;;5097684;28;20292;-62
2023/05/27 09:00:11;;;;;;;;;;;;;;;;;;5097554;28;19912;-61
2023/05/27 09:02:41;;;;;;;;;;;;;;;;;;5080856;28;19943;-61
2023/05/27 09:05:07;;;;;;;;;;;;;;;;;;5097296;28;19911;-62
2023/05/27 09:07:33;;;;;;;;;;;;;;;;;;5097205;28;20327;-61
2023/05/27 09:09:58;;;;;;;;;;;;;;;;;;5097581;28;19916;-61
2023/05/27 09:12:24;;;;;;;;;;;;;;;;;;5115747;28;19969;-60
2023/05/27 09:14:50;;;;;;;;;;;;;;;;;;5115548;28;19930;-60
2023/05/27 09:17:15;;;;;;;;;;;;;;;;;;5115302;28;19916;-61
2023/05/27 09:19:41;;;;;;;;;;;;;;;;;;5115672;28;19969;-63
2023/05/27 09:22:06;;;;;;;;;;;;;;;;;;5115239;28;19916;-60
2023/05/27 09:24:32;;;;;;;;;;;;;;;;;;5115811;28;19923;-60
2023/05/27 09:26:57;;;;;;;;;;;;;;;;;;5115119;28;20423;-63
2023/05/27 09:29:22;;;;;;;;;;;;;;;;;;5115381;28;19927;-60
2023/05/27 09:31:48;;;;;;;;;;;;;;;;;;5115221;28;19915;-62
2023/05/27 09:34:13;;;;;;;;;;;;;;;;;;5115608;28;19931;-61
2023/05/27 09:36:38;;;;;;;;;;;;;;;;;;5115151;28;19922;-62
2023/05/27 09:39:04;;;;;;;;;;;;;;;;;;5115117;28;19928;-61
2023/05/27 09:41:30;;;;;;;;;;;;;;;;;;5114866;28;19930;-61
2023/05/27 09:43:55;;;;;;;;;;;;;;;;;;5115254;28;19927;-62
2023/05/27 09:46:21;;;;;;;;;;;;;;;;;;5096484;28;19916;-60
2023/05/27 09:48:46;;;;;;;;;;;;;;;;;;5115133;28;19928;-62
2023/05/27 09:51:11;;;;;;;;;;;;;;;;;;5114879;28;19920;-62
2023/05/27 09:53:37;;;;;;;;;;;;;;;;;;5115067;28;19924;-61
2023/05/27 09:56:02;;;;;;;;;;;;;;;;;;5114483;28;20035;-62
2023/05/27 09:58:27;;;;;;;;;;;;;;;;;;5096440;28;19924;-60
2023/05/27 10:00:53;;;;;;;;;;;;;;;;;;5113575;28;19916;-61
2023/05/27 10:03:19;;;;;;;;;;;;;;;;;;5114312;28;20385;-61
2023/05/27 10:05:44;;;;;;;;;;;;;;;;;;5094977;28;19923;-62
2023/05/27 10:08:10;;;;;;;;;;;;;;;;;;5096004;28;19927;-62
2023/05/27 10:10:35;;;;;;;;;;;;;;;;;;5096063;28;20381;-62
2023/05/27 10:13:01;;;;;;;;;;;;;;;;;;5114447;28;20068;-63
2023/05/27 10:15:27;;;;;;;;;;;;;;;;;;5114252;28;19922;-62
2023/05/27 10:17:52;;;;;;;;;;;;;;;;;;5095518;28;20373;-61
2023/05/27 10:20:17;;;;;;;;;;;;;;;;;;5113868;28;19927;-62
2023/05/27 10:22:43;;;;;;;;;;;;;;;;;;5114081;28;19920;-62
2023/05/27 10:25:08;;;;;;;;;;;;;;;;;;5113030;28;19962;-61
2023/05/27 10:27:33;;;;;;;;;;;;;;;;;;5113369;28;19923;-62
2023/05/27 10:29:59;;;;;;;;;;;;;;;;;;5095402;28;19922;-61
2023/05/27 10:32:24;;;;;;;;;;;;;;;;;;5113548;28;19923;-62
2023/05/27 10:34:52;;;;;;;;;;;;;;;;;;5113584;28;20347;-62
2023/05/27 10:37:17;;;;;;;;;;;;;;;;;;5095307;28;19969;-63
2023/05/27 10:39:43;;;;;;;;;;;;;;;;;;5112839;28;19927;-61
2023/05/27 10:42:08;;;;;;;;;;;;;;;;;;5113517;28;20403;-61
2023/05/27 10:44:34;;;;;;;;;;;;;;;;;;5113956;28;19923;-62
2023/05/27 10:47:00;;;;;;;;;;;;;;;;;;5113298;28;20394;-59
2023/05/27 10:49:27;;;;;;;;;;;;;;;;;;5113683;28;19984;-62
2023/05/27 10:51:52;;;;;;;;;;;;;;;;;;5112719;28;19956;-61
2023/05/27 10:54:17;;;;;;;;;;;;;;;;;;5114003;28;20368;-61
2023/05/27 10:56:45;;;;;;;;;;;;;;;;;;5113368;28;19916;-61
2023/05/27 10:59:10;;;;;;;;;;;;;;;;;;5112980;28;19920;-60
2023/05/27 11:01:36;;;;;;;;;;;;;;;;;;5095290;28;20241;-61
2023/05/27 11:04:01;;;;;;;;;;;;;;;;;;5113802;28;20295;-62
2023/05/27 11:06:26;;;;;;;;;;;;;;;;;;5113280;28;19934;-61
2023/05/27 11:08:51;;;;;;;;;;;;;;;;;;5113487;28;20444;-61
2023/05/27 11:11:17;;;;;;;;;;;;;;;;;;5113187;28;20349;-61
2023/05/27 11:13:42;;;;;;;;;;;;;;;;;;5094884;28;19966;-62
2023/05/27 11:16:07;;;;;;;;;;;;;;;;;;5113068;28;19920;-61
2023/05/27 11:18:33;;;;;;;;;;;;;;;;;;5112839;28;19928;-61
2023/05/27 11:20:58;;;;;;;;;;;;;;;;;;5112673;28;19915;-62
2023/05/27 11:23:23;;;;;;;;;;;;;;;;;;5113174;28;20047;-62
2023/05/27 11:25:49;;;;;;;;;;;;;;;;;;5112927;28;20010;-61
2023/05/27 11:28:15;;;;;;;;;;;;;;;;;;5094569;28;20392;-62
2023/05/27 11:30:40;;;;;;;;;;;;;;;;;;5112806;28;19961;-63
2023/05/27 11:33:06;;;;;;;;;;;;;;;;;;5112978;28;19920;-61
2023/05/27 11:35:31;;;;;;;;;;;;;;;;;;5111713;28;19916;-61
2023/05/27 11:37:57;;;;;;;;;;;;;;;;;;5094256;28;20388;-60
2023/05/27 11:40:22;;;;;;;;;;;;;;;;;;5112984;28;19923;-60
2023/05/27 11:42:47;;;;;;;;;;;;;;;;;;5112537;28;20397;-62
2023/05/27 11:45:13;;;;;;;;;;;;;;;;;;5112748;28;19912;-61
2023/05/27 11:47:38;;;;;;;;;;;;;;;;;;5112307;28;20430;-62
2023/05/27 11:50:03;;;;;;;;;;;;;;;;;;5112576;28;19920;-61
2023/05/27 11:52:29;;;;;;;;;;;;;;;;;;5112182;28;19959;-62
2023/05/27 11:54:55;;;;;;;;;;;;;;;;;;5112474;28;20002;-62
2023/05/27 11:57:20;;;;;;;;;;;;;;;;;;5113695;28;20014;-61
2023/05/27 11:59:46;;;;;;;;;;;;;;;;;;5112221;28;20396;-62
2023/05/27 12:02:11;;;;;;;;;;;;;;;;;;5112194;28;19915;-61
2023/05/27 12:04:37;;;;;;;;;;;;;;;;;;5094327;28;19924;-61
2023/05/27 12:07:02;;;;;;;;;;;;;;;;;;5112297;28;19951;-62
2023/05/27 12:09:27;;;;;;;;;;;;;;;;;;5112040;28;19934;-61
2023/05/27 12:11:53;;;;;;;;;;;;;;;;;;5112221;28;19916;-62
2023/05/27 12:14:18;;;;;;;;;;;;;;;;;;5094252;28;19923;-61
2023/05/27 12:16:43;;;;;;;;;;;;;;;;;;5111065;28;19915;-62
2023/05/27 12:19:11;;;;;;;;;;;;;;;;;;5112507;28;19920;-60
2023/05/27 12:21:36;;;;;;;;;;;;;;;;;;5112238;28;20305;-61
2023/05/27 12:24:02;;;;;;;;;;;;;;;;;;5094955;28;19920;-61
2023/05/27 12:26:27;;;;;;;;;;;;;;;;;;5091783;28;20444;-62
2023/05/27 12:28:52;;;;;;;;;;;;;;;;;;5091821;28;20136;-62
2023/05/27 12:31:18;;;;;;;;;;;;;;;;;;5090827;28;19922;-62
2023/05/27 12:33:44;;;;;;;;;;;;;;;;;;5091951;28;19920;-61
2023/05/27 12:36:10;;;;;;;;;;;;;;;;;;5091606;28;19912;-61
2023/05/27 12:38:36;;;;;;;;;;;;;;;;;;5091480;28;20348;-62
2023/05/27 12:41:01;;;;;;;;;;;;;;;;;;5091501;28;20014;-62
2023/05/27 12:43:26;;;;;;;;;;;;;;;;;;5073468;28;19916;-62
2023/05/27 12:45:52;;;;;;;;;;;;;;;;;;5091261;28;19920;-61
2023/05/27 12:48:17;;;;;;;;;;;;;;;;;;5091595;28;20306;-62
2023/05/27 12:50:43;;;;;;;;;;;;;;;;;;5091444;28;20030;-60
2023/05/27 12:53:08;;;;;;;;;;;;;;;;;;5091787;28;19958;-63
2023/05/27 12:55:33;;;;;;;;;;;;;;;;;;5090668;28;19916;-62
2023/05/27 12:57:59;;;;;;;;;;;;;;;;;;5091726;28;19963;-64
2023/05/27 13:00:24;;;;;;;;;;;;;;;;;;5091288;28;19916;-62
2023/05/27 13:02:50;;;;;;;;;;;;;;;;;;5103106;28;20001;-63
2023/05/27 13:05:15;;;;;;;;;;;;;;;;;;5111715;28;20322;-64
2023/05/27 13:07:41;;;;;;;;;;;;;;;;;;5111514;28;19919;-63
2023/05/27 13:10:06;;;;;;;;;;;;;;;;;;5111662;28;20008;-63
2023/05/27 13:12:31;;;;;;;;;;;;;;;;;;5111534;28;19916;-62
2023/05/27 13:14:57;;;;;;;;;;;;;;;;;;5093462;28;20111;-62
2023/05/27 13:17:22;;;;;;;;;;;;;;;;;;5098689;28;19916;-60
2023/05/27 13:19:47;;;;;;;;;;;;;;;;;;5097380;28;19919;-61
2023/05/27 13:22:14;;;;;;;;;;;;;;;;;;5097273;28;19916;-61
2023/05/27 13:24:39;;;;;;;;;;;;;;;;;;5100276;28;19965;-62
2023/05/27 13:27:04;;;;;;;;;;;;;;;;;;5112881;28;19919;-62
2023/05/27 13:29:30;;;;;;;;;;;;;;;;;;5111807;28;19935;-62
2023/05/27 13:31:55;;;;;;;;;;;;;;;;;;5111312;28;19969;-61
2023/05/27 13:34:21;;;;;;;;;;;;;;;;;;5105317;28;19926;-63
2023/05/27 13:36:46;;;;;;;;;;;;;;;;;;5115415;27;19922;-63
2023/05/27 13:39:11;;;;;;;;;;;;;;;;;;5121680;27;19928;-59
2023/05/27 13:41:38;;;;;;;;;;;;;;;;;;5060154;28;19920;-63
2023/05/27 13:44:03;;;;;;;;;;;;;;;;;;5102823;28;19920;-62
2023/05/27 13:46:28;;;;;;;;;;;;;;;;;;5105385;28;19960;-62
2023/05/27 13:48:54;;;;;;;;;;;;;;;;;;5113828;28;19934;-62
2023/05/27 13:51:19;;;;;;;;;;;;;;;;;;5113079;28;19922;-62
2023/05/27 13:53:44;;;;;;;;;;;;;;;;;;5113774;28;19920;-62
2023/05/27 13:56:10;;;;;;;;;;;;;;;;;;5093484;28;19915;-59
2023/05/27 13:58:35;;;;;;;;;;;;;;;;;;5103087;28;19919;-60
2023/05/27 14:01:00;;;;;;;;;;;;;;;;;;5105177;28;20395;-59
2023/05/27 14:03:25;;;;;;;;;;;;;;;;;;5114367;28;19930;-59
2023/05/27 14:05:51;;;;;;;;;;;;;;;;;;5087782;28;19916;-60
2023/05/27 14:08:17;;;;;;;;;;;;;;;;;;5084462;28;19947;-61
2023/05/27 14:10:42;;;;;;;;;;;;;;;;;;5084050;28;19915;-60
2023/05/27 14:13:07;;;;;;;;;;;;;;;;;;5104015;28;19923;-61
2023/05/27 14:15:33;;;;;;;;;;;;;;;;;;5109988;27;19949;-61
2023/05/27 14:18:01;;;;;;;;;;;;;;;;;;5100492;28;19969;-62
2023/05/27 14:20:26;;;;;;;;;;;;;;;;;;5101941;28;20385;-61
2023/05/27 14:22:51;;;;;;;;;;;;;;;;;;5094318;28;19927;-61
2023/05/27 14:25:17;;;;;;;;;;;;;;;;;;5102623;28;20571;-60
2023/05/27 14:27:42;;;;;;;;;;;;;;;;;;5108671;28;19927;-60
2023/05/27 14:30:08;;;;;;;;;;;;;;;;;;5097893;28;20277;-63
2023/05/27 14:32:33;;;;;;;;;;;;;;;;;;5102601;28;20388;-63
2023/05/27 14:34:58;;;;;;;;;;;;;;;;;;5085006;28;19916;-63
2023/05/27 14:37:24;;;;;;;;;;;;;;;;;;5111409;28;20006;-64
2023/05/27 14:39:49;;;;;;;;;;;;;;;;;;5098906;28;19924;-63
2023/05/27 14:42:15;;;;;;;;;;;;;;;;;;5086415;28;19942;-62
2023/05/27 14:44:40;;;;;;;;;;;;;;;;;;5102505;28;19920;-62
2023/05/27 14:47:06;;;;;;;;;;;;;;;;;;5109177;28;19922;-62
2023/05/27 14:49:31;;;;;;;;;;;;;;;;;;5093555;28;20022;-61
2023/05/27 14:51:57;;;;;;;;;;;;;;;;;;5103249;28;19916;-62
2023/05/27 14:54:22;;;;;;;;;;;;;;;;;;5110144;27;20322;-63
2023/05/27 14:56:47;;;;;;;;;;;;;;;;;;5096525;28;19923;-63
2023/05/27 14:59:13;;;;;;;;;;;;;;;;;;5104613;28;19977;-62
2023/05/27 15:01:38;;;;;;;;;;;;;;;;;;5087252;28;19924;-62
2023/05/27 15:04:04;;;;;;;;;;;;;;;;;;5087041;28;19927;-64
2023/05/27 15:06:30;;;;;;;;;;;;;;;;;;5103516;28;20010;-62
2023/05/27 15:08:55;;;;;;;;;;;;;;;;;;5094882;28;19932;-64
2023/05/27 15:11:21;;;;;;;;;;;;;;;;;;5093693;28;20054;-67
2023/05/27 15:13:46;;;;;;;;;;;;;;;;;;5099077;28;19927;-63
2023/05/27 15:16:11;;;;;;;;;;;;;;;;;;5086745;28;19928;-62
2023/05/27 15:18:37;;;;;;;;;;;;;;;;;;5093191;28;19940;-63
2023/05/27 15:21:02;;;;;;;;;;;;;;;;;;5093445;28;19916;-62
2023/05/27 15:23:27;;;;;;;;;;;;;;;;;;5099286;28;19924;-63
2023/05/27 15:25:53;;;;;;;;;;;;;;;;;;5099317;28;19968;-63
2023/05/27 15:28:18;;;;;;;;;;;;;;;;;;5095517;28;19935;-63
2023/05/27 15:30:43;;;;;;;;;;;;;;;;;;5075355;28;19919;-63
2023/05/27 15:33:09;;;;;;;;;;;;;;;;;;5102444;28;19919;-63
2023/05/27 15:35:37;;;;;;;;;;;;;;;;;;5084321;28;21408;-63
2023/05/27 15:38:02;;;;;;;;;;;;;;;;;;5112211;28;20255;-64
2023/05/27 15:40:28;;;;;;;;;;;;;;;;;;5108316;28;19946;-63
2023/05/27 15:42:53;;;;;;;;;;;;;;;;;;5082793;28;19916;-64
2023/05/27 15:45:18;;;;;;;;;;;;;;;;;;5106710;28;20312;-63
2023/05/27 15:47:44;;;;;;;;;;;;;;;;;;5112386;28;20274;-64
2023/05/27 15:50:09;;;;;;;;;;;;;;;;;;5110561;28;19919;-63
2023/05/27 15:52:35;;;;;;;;;;;;;;;;;;5100992;28;20381;-63
2023/05/27 15:55:00;;;;;;;;;;;;;;;;;;5100060;28;19982;-61
2023/05/27 15:57:25;;;;;;;;;;;;;;;;;;5102342;28;20015;-63
2023/05/27 15:59:51;;;;;;;;;;;;;;;;;;5100043;28;20278;-65
2023/05/27 16:02:16;;;;;;;;;;;;;;;;;;5082100;28;19916;-64
2023/05/27 16:04:42;;;;;;;;;;;;;;;;;;5109776;28;19922;-62
2023/05/27 16:07:07;;;;;;;;;;;;;;;;;;5091480;28;20011;-62
2023/05/27 16:09:33;;;;;;;;;;;;;;;;;;5093554;28;20113;-63
2023/05/27 16:11:58;;;;;;;;;;;;;;;;;;5109577;28;19924;-64
2023/05/27 16:14:23;;;;;;;;;;;;;;;;;;5089840;28;19923;-62
2023/05/27 16:16:49;;;;;;;;;;;;;;;;;;5101394;28;19928;-61
2023/05/27 16:19:18;;;;;;;;;;;;;;;;;;5101428;28;20035;-64
2023/05/27 16:21:46;;;;;;;;;;;;;;;;;;5100608;28;19919;-63
2023/05/27 16:24:11;;;;;;;;;;;;;;;;;;5102433;28;20404;-64
2023/05/27 16:26:36;;;;;;;;;;;;;;;;;;5073026;28;20048;-61
2023/05/27 16:29:02;;;;;;;;;;;;;;;;;;5093504;28;19924;-63
2023/05/27 16:31:27;;;;;;;;;;;;;;;;;;5100343;28;19979;-61
2023/05/27 16:33:53;;;;;;;;;;;;;;;;;;5090931;28;20392;-62
2023/05/27 16:36:18;;;;;;;;;;;;;;;;;;5071703;28;19920;-63
2023/05/27 16:38:43;;;;;;;;;;;;;;;;;;5088877;28;19924;-62
2023/05/27 16:41:09;;;;;;;;;;;;;;;;;;5090259;28;20274;-62